Time;durP1;ratioP1;P1;durP2;ratioP2;P2;SDS_P1;SDS_P2;PMS_P1;PMS_P2;Temp;Humidity;BMP_temperature;BMP_pressure;BME280_temperature;BME280_humidity;BME280_pressure;Samples;Min_cycle;Max_cycle;Signal;HPM_P1;HPM_P2
2022/11/12 00:01:13;;;;;;;22.92;11.88;;;4.80;99.90;;;;;;5113789;28;20042;-78
2022/11/12 00:03:38;;;;;;;18.77;10.95;;;5.00;99.90;;;;;;5113848;28;20032;-78
2022/11/12 00:06:04;;;;;;;25.85;11.82;;;4.90;99.90;;;;;;5112866;28;20047;-79
2022/11/12 00:08:29;;;;;;;21.75;12.18;;;5.30;99.90;;;;;;5112693;28;20122;-79
2022/11/12 00:10:55;;;;;;;16.98;11.43;;;4.90;99.90;;;;;;5113957;28;20044;-78
2022/11/12 00:13:21;;;;;;;17.75;11.63;;;4.80;99.90;;;;;;5113842;28;20039;-79
2022/11/12 00:15:46;;;;;;;26.27;12.05;;;4.30;99.90;;;;;;5113757;28;20097;-79
2022/11/12 00:18:12;;;;;;;25.02;11.35;;;4.10;99.90;;;;;;5113841;28;20035;-79
2022/11/12 00:20:38;;;;;;;19.92;11.60;;;4.20;99.90;;;;;;5113720;28;20120;-79
2022/11/12 00:23:03;;;;;;;20.50;12.05;;;5.40;99.90;;;;;;5113903;28;20059;-79
2022/11/12 00:25:29;;;;;;;23.95;13.63;;;4.80;99.90;;;;;;5113445;28;20044;-79
2022/11/12 00:28:06;;;;;;;24.80;12.32;;;4.80;99.90;;;;;;5113808;28;20495;-80
2022/11/12 00:30:35;;;;;;;27.23;12.80;;;5.20;99.90;;;;;;5114218;28;20047;-80
2022/11/12 00:33:02;;;;;;;22.58;12.05;;;5.10;99.90;;;;;;5113821;28;20051;-79
2022/11/12 00:35:30;;;;;;;21.17;11.57;;;5.40;99.90;;;;;;5113451;28;20084;-79
2022/11/12 00:37:56;;;;;;;19.83;11.85;;;4.90;99.90;;;;;;5116842;28;20403;-79
2022/11/12 00:40:23;;;;;;;17.50;11.07;;;5.30;99.90;;;;;;5117165;28;20487;-79
2022/11/12 00:42:51;;;;;;;23.02;12.07;;;4.80;99.90;;;;;;5117049;28;20169;-79
2022/11/12 00:45:18;;;;;;;20.35;11.77;;;5.00;99.90;;;;;;5117024;28;20040;-79
2022/11/12 00:47:43;;;;;;;20.98;11.27;;;4.90;99.90;;;;;;5115870;28;20046;-79
2022/11/12 00:50:09;;;;;;;21.38;11.45;;;4.80;99.90;;;;;;5117054;28;20391;-80
2022/11/12 00:52:35;;;;;;;23.15;10.95;;;4.90;99.90;;;;;;5116977;28;20051;-79
2022/11/12 00:55:00;;;;;;;19.67;12.32;;;4.80;99.90;;;;;;5117086;28;20042;-79
2022/11/12 00:57:26;;;;;;;21.73;9.98;;;5.50;99.90;;;;;;5098796;28;20387;-80
2022/11/12 00:59:52;;;;;;;21.23;10.57;;;4.70;99.90;;;;;;5116770;28;20082;-79
2022/11/12 01:02:18;;;;;;;20.65;10.40;;;4.70;99.90;;;;;;5116747;28;20040;-79
2022/11/12 01:04:44;;;;;;;19.05;9.90;;;4.70;99.90;;;;;;5116959;28;20044;-79
2022/11/12 01:07:10;;;;;;;16.48;10.52;;;4.40;99.90;;;;;;5116692;28;20065;-80
2022/11/12 01:09:36;;;;;;;19.73;10.05;;;4.70;99.90;;;;;;5116608;28;20079;-79
2022/11/12 01:12:01;;;;;;;20.73;10.13;;;4.60;99.90;;;;;;5116222;28;20043;-80
2022/11/12 01:14:27;;;;;;;20.42;9.90;;;4.60;99.90;;;;;;5116508;28;20127;-79
2022/11/12 01:16:52;;;;;;;17.42;10.07;;;4.60;99.90;;;;;;5116901;28;20118;-79
2022/11/12 01:19:18;;;;;;;17.58;9.25;;;5.70;99.90;;;;;;5116579;28;20061;-79
2022/11/12 01:21:44;;;;;;;15.93;9.50;;;4.50;99.90;;;;;;5116105;28;20475;-79
2022/11/12 01:24:10;;;;;;;16.75;9.18;;;4.50;99.90;;;;;;5116331;28;20057;-79
2022/11/12 01:26:36;;;;;;;18.08;8.82;;;4.40;99.90;;;;;;5116260;28;20380;-79
2022/11/12 01:29:03;;;;;;;15.90;8.87;;;4.50;99.90;;;;;;5116136;28;20504;-78
2022/11/12 01:31:34;;;;;;;14.98;9.00;;;4.30;99.90;;;;;;5116201;28;20730;-79
2022/11/12 01:34:03;;;;;;;19.23;9.52;;;4.40;99.90;;;;;;5116515;28;20039;-79
2022/11/12 01:36:35;;;;;;;16.00;8.93;;;4.40;99.90;;;;;;5116058;28;20047;-79
2022/11/12 01:39:01;;;;;;;23.40;11.15;;;4.40;99.90;;;;;;5116057;28;20043;-79
2022/11/12 01:41:30;;;;;;;15.83;9.27;;;4.40;99.90;;;;;;5115929;28;20479;-79
2022/11/12 01:44:19;;;;;;;18.55;10.48;;;4.40;99.90;;;;;;5115926;28;20453;-79
2022/11/12 01:46:57;;;;;;;22.38;10.02;;;4.50;99.90;;;;;;5115885;28;20093;-79
2022/11/12 01:49:42;;;;;;;18.83;9.15;;;5.30;99.90;;;;;;5115866;28;20166;-79
2022/11/12 01:52:16;;;;;;;16.10;9.52;;;3.50;99.90;;;;;;5116528;27;20126;-79
2022/11/12 01:54:45;;;;;;;13.90;9.40;;;4.50;99.90;;;;;;5115921;28;20044;-79
2022/11/12 01:57:12;;;;;;;18.52;9.82;;;4.30;99.90;;;;;;5115759;28;20122;-80
2022/11/12 01:59:40;;;;;;;;;;;4.30;99.90;;;;;;5116091;28;20079;-79
2022/11/12 02:02:06;;;;;;;16.20;8.90;;;4.50;99.90;;;;;;5115620;28;19930;-79
2022/11/12 02:04:35;;;;;;;15.20;9.03;;;4.30;99.90;;;;;;5115469;28;20043;-79
2022/11/12 02:07:01;;;;;;;15.27;8.63;;;4.20;99.90;;;;;;5115557;28;20137;-79
2022/11/12 02:09:29;;;;;;;13.60;8.02;;;4.30;99.90;;;;;;5115288;28;20532;-79
2022/11/12 02:11:55;;;;;;;16.23;9.23;;;4.30;99.90;;;;;;5115437;28;20051;-79
2022/11/12 02:14:20;;;;;;;13.80;8.20;;;4.30;99.90;;;;;;5115419;28;20035;-79
2022/11/12 02:16:47;;;;;;;16.45;8.50;;;4.20;99.90;;;;;;5113732;28;20044;-79
2022/11/12 02:19:15;;;;;;;14.60;8.15;;;4.40;99.90;;;;;;5115333;28;20044;-79
2022/11/12 02:21:41;;;;;;;16.52;8.65;;;3.80;99.90;;;;;;5114894;27;20536;-79
2022/11/12 02:24:12;;;;;;;15.18;8.40;;;5.60;99.90;;;;;;5115203;28;20044;-79
2022/11/12 02:26:43;;;;;;;15.68;8.00;;;3.40;99.90;;;;;;5115458;28;20084;-79
2022/11/12 02:29:09;;;;;;;16.70;8.70;;;4.00;99.90;;;;;;5114869;28;20055;-79
2022/11/12 02:31:35;;;;;;;13.13;8.00;;;4.30;99.90;;;;;;5115074;28;20044;-79
2022/11/12 02:34:01;;;;;;;11.80;7.53;;;4.10;99.90;;;;;;5115732;28;20097;-79
2022/11/12 02:36:27;;;;;;;17.45;8.50;;;4.00;99.90;;;;;;5114979;28;20044;-79
2022/11/12 02:38:53;;;;;;;12.37;7.70;;;5.70;99.90;;;;;;5115209;28;20131;-80
2022/11/12 02:41:18;;;;;;;11.68;8.10;;;3.20;99.90;;;;;;5114934;28;20083;-79
2022/11/12 02:43:44;;;;;;;14.88;8.68;;;3.80;99.90;;;;;;5114979;28;20467;-79
2022/11/12 02:46:10;;;;;;;16.33;7.78;;;3.20;99.90;;;;;;5114615;28;20551;-79
2022/11/12 02:48:36;;;;;;;13.07;8.60;;;3.90;99.90;;;;;;5114842;28;20048;-79
2022/11/12 02:51:02;;;;;;;14.57;8.45;;;4.00;99.90;;;;;;5114619;28;20299;-79
2022/11/12 02:53:27;;;;;;;12.07;8.27;;;4.00;99.90;;;;;;5114624;28;20052;-80
2022/11/12 02:55:53;;;;;;;13.60;8.07;;;3.90;99.90;;;;;;5114822;28;20050;-79
2022/11/12 02:58:21;;;;;;;11.43;7.70;;;3.80;99.90;;;;;;5114508;28;20043;-80
2022/11/12 03:00:47;;;;;;;14.23;8.00;;;3.80;99.90;;;;;;5114173;28;20044;-80
2022/11/12 03:03:13;;;;;;;13.70;7.87;;;3.80;99.90;;;;;;5114647;28;20498;-79
2022/11/12 03:05:39;;;;;;;11.80;7.97;;;4.20;99.90;;;;;;5114447;28;20282;-79
2022/11/12 03:08:06;;;;;;;13.77;7.78;;;3.50;99.90;;;;;;5114538;28;20503;-80
2022/11/12 03:10:32;;;;;;;12.98;7.65;;;3.90;99.90;;;;;;5113201;28;20044;-80
2022/11/12 03:13:00;;;;;;;13.02;7.10;;;3.80;99.90;;;;;;5114281;28;20036;-80
2022/11/12 03:15:27;;;;;;;12.38;7.97;;;5.10;99.90;;;;;;5114271;28;20039;-80
2022/11/12 03:17:52;;;;;;;12.95;7.93;;;3.70;99.90;;;;;;5114307;28;20071;-80
2022/11/12 03:20:18;;;;;;;11.80;7.25;;;3.80;99.90;;;;;;5114336;28;20039;-80
2022/11/12 03:22:55;;;;;;;14.32;7.68;;;3.30;99.90;;;;;;5113073;28;20079;-79
2022/11/12 03:25:21;;;;;;;10.60;7.10;;;3.60;99.90;;;;;;5114178;28;20491;-80
2022/11/12 03:27:46;;;;;;;12.70;8.07;;;3.80;99.90;;;;;;5114296;28;20274;-79
2022/11/12 03:30:12;;;;;;;13.82;8.30;;;3.70;99.90;;;;;;5114173;28;20056;-80
2022/11/12 03:32:38;;;;;;;18.80;8.23;;;3.70;99.90;;;;;;5114200;28;20090;-80
2022/11/12 03:35:04;;;;;;;17.70;7.90;;;3.70;99.90;;;;;;5114189;28;20040;-80
2022/11/12 03:37:29;;;;;;;11.48;7.45;;;3.80;99.90;;;;;;5114030;28;20403;-80
2022/11/12 03:39:55;;;;;;;14.65;7.10;;;3.70;99.90;;;;;;5114074;28;20047;-79
2022/11/12 03:42:20;;;;;;;13.68;7.88;;;3.80;99.90;;;;;;5114074;28;20039;-79
2022/11/12 03:44:46;;;;;;;14.68;8.02;;;3.80;99.90;;;;;;5113769;28;20075;-80
2022/11/12 03:47:11;;;;;;;34.05;8.63;;;4.50;99.90;;;;;;5113953;28;20493;-79
2022/11/12 03:49:37;;;;;;;13.50;7.97;;;3.80;99.90;;;;;;5114001;28;20036;-80
2022/11/12 03:52:03;;;;;;;13.52;7.68;;;3.20;99.90;;;;;;5112770;28;20051;-79
2022/11/12 03:54:28;;;;;;;13.15;7.68;;;3.70;99.90;;;;;;5114101;28;20498;-79
2022/11/12 03:56:54;;;;;;;15.20;8.68;;;3.60;99.90;;;;;;5095714;28;20517;-79
2022/11/12 03:59:19;;;;;;;13.40;8.05;;;3.30;99.90;;;;;;5112768;28;20058;-79
2022/11/12 04:01:45;;;;;;;14.10;7.47;;;3.80;99.90;;;;;;5113799;28;20047;-79
2022/11/12 04:04:10;;;;;;;12.73;8.45;;;3.80;99.90;;;;;;5113899;28;20127;-79
2022/11/12 04:09:20;;;;;;;10.98;7.40;;;3.70;99.90;;;;;;5114081;28;20083;-79
2022/11/12 04:11:46;;;;;;;14.35;7.72;;;3.80;99.90;;;;;;5115425;28;20086;-79
2022/11/12 04:14:11;;;;;;;17.75;8.40;;;2.70;99.90;;;;;;5117639;28;20070;-80
2022/11/12 04:22:07;;;;;;;18.75;7.93;;;;;;;;;;5117563;28;20047;-79
2022/11/12 04:27:24;;;;;;;12.93;7.63;;;3.60;99.90;;;;;;5117772;28;20055;-80
2022/11/12 04:32:38;;;;;;;15.13;8.07;;;3.60;99.90;;;;;;5117674;27;20554;-79
2022/11/12 04:35:05;;;;;;;13.40;7.88;;;3.60;99.90;;;;;;5117178;27;20056;-79
2022/11/12 04:37:43;;;;;;;17.92;7.78;;;3.70;99.90;;;;;;5117207;28;20556;-79
2022/11/12 04:45:53;;;;;;;11.77;7.57;;;4.00;99.90;;;;;;5117211;28;20056;-79
2022/11/12 04:48:20;;;;;;;13.35;7.65;;;3.40;99.90;;;;;;5117219;28;20043;-80
2022/11/12 04:50:49;;;;;;;15.15;8.40;;;3.60;99.90;;;;;;5117303;28;20044;-79
2022/11/12 04:53:14;;;;;;;37.17;8.55;;;2.80;99.90;;;;;;5117176;28;20471;-80
2022/11/12 04:55:40;;;;;;;12.90;7.68;;;3.40;99.90;;;;;;5116977;28;20047;-79
2022/11/12 04:58:06;;;;;;;14.25;7.65;;;3.50;99.90;;;;;;5117439;28;20395;-79
2022/11/12 05:00:31;;;;;;;17.23;7.43;;;3.30;99.90;;;;;;5116747;28;20040;-79
2022/11/12 05:02:57;;;;;;;12.55;7.60;;;3.50;99.90;;;;;;5117573;28;20078;-79
2022/11/12 05:05:23;;;;;;;11.85;7.65;;;3.40;99.90;;;;;;5117061;28;20047;-79
2022/11/12 05:07:48;;;;;;;10.07;6.55;;;3.30;99.90;;;;;;5116785;28;20046;-80
2022/11/12 05:10:14;;;;;;;11.55;6.93;;;3.30;99.90;;;;;;5116702;28;20106;-79
2022/11/12 05:12:41;;;;;;;11.23;7.05;;;3.40;99.90;;;;;;5116599;28;20433;-78
2022/11/12 05:15:07;;;;;;;11.60;6.82;;;3.40;99.90;;;;;;5116693;28;20377;-80
2022/11/12 05:17:33;;;;;;;10.27;6.43;;;3.40;99.90;;;;;;5115514;28;20087;-78
2022/11/12 05:19:58;;;;;;;13.70;6.68;;;2.40;99.90;;;;;;5116538;28;20086;-79
2022/11/12 05:22:24;;;;;;;12.57;7.25;;;3.50;99.90;;;;;;5115944;28;20039;-79
2022/11/12 05:24:50;;;;;;;14.57;7.53;;;3.20;99.90;;;;;;5116090;28;20042;-79
2022/11/12 05:27:18;;;;;;;12.20;7.72;;;3.20;99.90;;;;;;5116226;28;20044;-79
2022/11/12 05:29:43;;;;;;;9.95;7.25;;;2.90;99.90;;;;;;5116325;28;20161;-78
2022/11/12 05:32:14;;;;;;;15.25;7.18;;;3.20;99.90;;;;;;5116617;28;20086;-79
2022/11/12 05:34:40;;;;;;;10.02;6.55;;;3.20;99.90;;;;;;5116165;28;20051;-79
2022/11/12 05:37:07;;;;;;;16.40;7.53;;;3.10;99.90;;;;;;5116175;28;20047;-79
2022/11/12 05:39:33;;;;;;;10.23;6.53;;;3.20;99.90;;;;;;5116157;28;20086;-79
2022/11/12 05:41:59;;;;;;;10.93;6.88;;;3.20;99.90;;;;;;5115910;27;20115;-79
2022/11/12 05:44:24;;;;;;;13.65;7.18;;;3.10;99.90;;;;;;5115980;28;20093;-79
2022/11/12 05:46:50;;;;;;;12.55;7.10;;;3.30;99.90;;;;;;5115690;28;20054;-79
2022/11/12 05:49:16;;;;;;;12.52;6.97;;;3.10;99.90;;;;;;5116070;28;20039;-79
2022/11/12 05:51:42;;;;;;;9.73;6.40;;;3.30;99.90;;;;;;5115737;28;20050;-79
2022/11/12 05:54:08;;;;;;;11.60;7.97;;;3.00;99.90;;;;;;5115836;28;20395;-79
2022/11/12 05:56:34;;;;;;;13.93;6.95;;;3.00;99.90;;;;;;5115659;28;20048;-78
2022/11/12 05:59:02;;;;;;;11.27;7.00;;;3.50;99.90;;;;;;5115791;28;20044;-79
2022/11/12 06:01:29;;;;;;;10.90;6.63;;;3.00;99.90;;;;;;5116010;28;20143;-79
2022/11/12 06:03:55;;;;;;;9.97;6.40;;;2.90;99.90;;;;;;5115638;28;20046;-79
2022/11/12 06:06:21;;;;;;;15.97;6.77;;;2.90;99.90;;;;;;5115736;28;20342;-79
2022/11/12 06:08:48;;;;;;;12.77;6.85;;;3.00;99.90;;;;;;5114308;28;20488;-78
2022/11/12 06:11:14;;;;;;;10.90;7.32;;;3.40;99.90;;;;;;5114205;28;20054;-78
2022/11/12 06:13:40;;;;;;;12.38;7.50;;;3.10;99.90;;;;;;5114511;28;20446;-78
2022/11/12 06:16:06;;;;;;;16.52;8.02;;;2.90;99.90;;;;;;5115395;28;20043;-79
2022/11/12 06:18:32;;;;;;;12.65;7.53;;;3.00;99.90;;;;;;5115178;28;20393;-79
2022/11/12 06:21:18;;;;;;;12.95;7.07;;;2.90;99.90;;;;;;5115148;28;20035;-79
2022/11/12 06:23:49;;;;;;;12.55;7.53;;;3.10;99.90;;;;;;5115114;28;20043;-78
2022/11/12 06:26:15;;;;;;;15.52;7.53;;;2.90;99.90;;;;;;5115089;28;20131;-79
2022/11/12 06:28:41;;;;;;;13.38;7.10;;;3.00;99.90;;;;;;5115436;28;20079;-78
2022/11/12 06:31:06;;;;;;;13.65;7.07;;;2.90;99.90;;;;;;5114789;28;20046;-79
2022/11/12 06:33:32;;;;;;;12.90;7.93;;;2.90;99.90;;;;;;5114589;28;20036;-78
2022/11/12 06:36:01;;;;;;;11.40;7.85;;;3.30;99.90;;;;;;5113407;28;20088;-79
2022/11/12 06:38:38;;;;;;;14.10;8.05;;;1.80;99.90;;;;;;5113667;28;20101;-79
2022/11/12 06:41:05;;;;;;;13.07;7.85;;;2.80;99.90;;;;;;5115338;28;20082;-78
2022/11/12 06:43:32;;;;;;;12.00;7.35;;;2.90;99.90;;;;;;5114813;28;20433;-79
2022/11/12 06:46:06;;;;;;;12.57;8.23;;;2.80;99.90;;;;;;5114500;28;20086;-79
2022/11/12 06:48:32;;;;;;;13.35;8.25;;;2.90;99.90;;;;;;5114653;28;20048;-78
2022/11/12 06:51:04;;;;;;;13.27;7.13;;;4.00;99.90;;;;;;5113664;28;20135;-79
2022/11/12 06:53:29;;;;;;;13.43;7.85;;;2.90;99.90;;;;;;5114915;28;20043;-79
2022/11/12 06:56:00;;;;;;;12.82;7.70;;;3.40;99.90;;;;;;5114373;28;20044;-78
2022/11/12 06:58:26;;;;;;;15.15;8.07;;;2.90;99.90;;;;;;5114766;28;20122;-79
2022/11/12 07:00:51;;;;;;;13.20;7.38;;;2.90;99.90;;;;;;5114471;28;20458;-78
2022/11/12 07:03:17;;;;;;;12.88;8.32;;;2.80;99.90;;;;;;5114366;28;20043;-79
2022/11/12 07:05:42;;;;;;;11.15;7.43;;;2.90;99.90;;;;;;5114227;27;20096;-79
2022/11/12 07:08:08;;;;;;;12.40;7.78;;;2.90;99.90;;;;;;5114478;28;20050;-78
2022/11/12 07:10:34;;;;;;;10.05;7.43;;;2.70;99.90;;;;;;5114261;28;20062;-79
2022/11/12 07:12:59;;;;;;;12.65;7.57;;;2.70;99.90;;;;;;5114643;28;20045;-78
2022/11/12 07:15:25;;;;;;;11.95;8.05;;;2.60;99.90;;;;;;5114313;28;20065;-78
2022/11/12 07:17:51;;;;;;;15.43;8.20;;;2.70;99.90;;;;;;5114169;28;20046;-78
2022/11/12 07:20:16;;;;;;;12.38;7.82;;;2.70;99.90;;;;;;5114438;28;20051;-79
2022/11/12 07:22:42;;;;;;;15.52;8.70;;;2.70;99.90;;;;;;5114688;28;20039;-79
2022/11/12 07:25:08;;;;;;;14.07;8.27;;;2.20;99.90;;;;;;5114154;28;20043;-78
2022/11/12 07:27:33;;;;;;;13.68;8.18;;;2.70;99.90;;;;;;5114611;28;20422;-78
2022/11/12 07:29:59;;;;;;;12.50;8.52;;;2.70;99.90;;;;;;5114472;28;20077;-79
2022/11/12 07:32:24;;;;;;;14.10;7.80;;;2.80;99.90;;;;;;5114245;28;20067;-78
2022/11/12 07:34:50;;;;;;;12.32;8.27;;;2.70;99.90;;;;;;5114252;28;20036;-79
2022/11/12 07:37:15;;;;;;;13.13;8.10;;;3.20;99.90;;;;;;5114632;28;20120;-78
2022/11/12 07:39:41;;;;;;;13.10;8.13;;;2.80;99.90;;;;;;5114543;28;20135;-78
2022/11/12 07:42:07;;;;;;;15.85;8.55;;;2.60;99.90;;;;;;5114404;28;20044;-79
2022/11/12 07:44:32;;;;;;;14.43;7.97;;;2.80;99.90;;;;;;5114057;28;20102;-78
2022/11/12 07:46:58;;;;;;;16.55;9.40;;;2.90;99.90;;;;;;5117991;28;20051;-78
2022/11/12 07:49:23;;;;;;;17.98;8.98;;;2.90;99.90;;;;;;5118322;28;20143;-79
2022/11/12 07:51:49;;;;;;;15.05;9.23;;;2.90;99.90;;;;;;5118468;28;20438;-78
2022/11/12 07:54:14;;;;;;;15.70;9.15;;;2.90;99.90;;;;;;5118430;28;20085;-79
2022/11/12 07:56:40;;;;;;;12.90;8.98;;;3.00;99.90;;;;;;5118263;28;20050;-78
2022/11/12 07:59:06;;;;;;;17.63;9.68;;;3.00;99.90;;;;;;5116996;28;20132;-79
2022/11/12 08:01:39;;;;;;;14.43;9.23;;;3.00;99.90;;;;;;5117972;28;20048;-78
2022/11/12 08:04:08;;;;;;;24.65;10.73;;;3.10;99.90;;;;;;5117887;28;20088;-79
2022/11/12 08:06:34;;;;;;;16.20;9.93;;;3.20;99.90;;;;;;5117980;28;20154;-79
2022/11/12 08:09:05;;;;;;;17.77;10.48;;;3.40;99.90;;;;;;5116813;28;20143;-78
2022/11/12 08:11:32;;;;;;;22.40;12.07;;;3.40;99.90;;;;;;5117975;28;20047;-79
2022/11/12 08:13:57;;;;;;;25.40;10.65;;;3.30;99.90;;;;;;5117960;28;20047;-78
2022/11/12 08:16:23;;;;;;;18.52;11.35;;;3.40;99.90;;;;;;5117714;28;20043;-79
2022/11/12 08:18:49;;;;;;;19.00;11.45;;;3.70;99.90;;;;;;5117784;28;20092;-79
2022/11/12 08:21:16;;;;;;;18.48;11.23;;;3.80;99.90;;;;;;5117639;28;20424;-79
2022/11/12 08:23:42;;;;;;;20.02;11.82;;;3.80;99.90;;;;;;5117469;28;20093;-78
2022/11/12 08:26:11;;;;;;;22.77;11.77;;;4.00;99.90;;;;;;5117636;28;20055;-79
2022/11/12 08:28:38;;;;;;;20.73;12.35;;;4.10;99.90;;;;;;5117419;28;20043;-78
2022/11/12 08:31:09;;;;;;;19.35;12.35;;;4.00;99.90;;;;;;5117176;28;20503;-77
2022/11/12 08:33:35;;;;;;;22.25;12.50;;;4.30;99.90;;;;;;5117441;28;20090;-78
2022/11/12 08:36:05;;;;;;;21.70;13.38;;;4.20;99.90;;;;;;5117388;28;20047;-78
2022/11/12 08:38:31;;;;;;;20.02;13.25;;;4.50;99.90;;;;;;5117531;28;20039;-78
2022/11/12 08:41:08;;;;;;;24.02;13.32;;;4.60;99.90;;;;;;5117335;27;20095;-78
2022/11/12 08:43:34;;;;;;;18.60;12.67;;;4.70;99.90;;;;;;5117493;28;20046;-78
2022/11/12 08:46:01;;;;;;;22.10;12.87;;;4.80;99.90;;;;;;5117167;28;20047;-78
2022/11/12 08:48:28;;;;;;;20.05;13.15;;;4.90;99.90;;;;;;5117178;28;20047;-78
2022/11/12 08:50:54;;;;;;;23.92;13.70;;;4.90;99.90;;;;;;5117198;28;20096;-79
2022/11/12 08:53:21;;;;;;;19.13;12.82;;;5.00;99.90;;;;;;5117063;27;20051;-78
2022/11/12 08:55:47;;;;;;;19.85;12.85;;;5.20;99.90;;;;;;5117110;28;20036;-78
2022/11/12 08:58:13;;;;;;;22.63;13.27;;;5.20;99.90;;;;;;5116031;28;20292;-78
2022/11/12 09:00:42;;;;;;;23.42;13.43;;;5.30;99.90;;;;;;5116499;28;20083;-78
2022/11/12 09:03:13;;;;;;;24.17;13.93;;;5.40;99.90;;;;;;5117124;28;20395;-78
2022/11/12 09:05:39;;;;;;;23.02;13.15;;;5.40;99.90;;;;;;5116804;28;20043;-78
2022/11/12 09:08:07;;;;;;;21.45;12.98;;;5.50;99.90;;;;;;5117135;28;20054;-78
2022/11/12 09:10:34;;;;;;;26.00;12.38;;;5.60;99.90;;;;;;5098692;28;20469;-78
2022/11/12 09:12:59;;;;;;;21.17;13.35;;;5.60;99.90;;;;;;5116724;28;20050;-81
2022/11/12 09:15:26;;;;;;;19.55;12.85;;;5.70;99.90;;;;;;5116501;28;20039;-78
2022/11/12 09:17:55;;;;;;;17.52;12.52;;;5.80;99.90;;;;;;5116731;28;20036;-78
2022/11/12 09:20:22;;;;;;;23.35;12.23;;;5.90;99.90;;;;;;5116440;28;20051;-78
2022/11/12 09:22:48;;;;;;;19.88;12.48;;;6.50;99.90;;;;;;5116455;28;20043;-81
2022/11/12 09:25:13;;;;;;;22.25;12.55;;;6.10;99.90;;;;;;5116283;28;20096;-78
2022/11/12 09:27:39;;;;;;;18.73;11.52;;;6.20;99.90;;;;;;5116391;28;20043;-78
2022/11/12 09:30:05;;;;;;;19.58;12.70;;;6.20;99.90;;;;;;5116755;28;20047;-78
2022/11/12 09:32:31;;;;;;;20.58;11.85;;;6.30;99.90;;;;;;5116402;28;20088;-78
2022/11/12 09:34:57;;;;;;;21.53;12.60;;;6.40;99.90;;;;;;5116273;28;20035;-81
2022/11/12 09:37:22;;;;;;;20.63;12.82;;;6.40;99.90;;;;;;5116265;28;20043;-81
2022/11/12 09:39:48;;;;;;;18.45;12.23;;;6.50;99.90;;;;;;5115928;28;20082;-80
2022/11/12 09:42:20;;;;;;;19.02;11.40;;;6.60;99.90;;;;;;5114993;28;20134;-80
2022/11/12 09:45:21;;;;;;;17.95;11.70;;;6.70;99.90;;;;;;5116056;28;20043;-79
2022/11/12 09:47:53;;;;;;;18.48;12.27;;;6.80;99.90;;;;;;5101942;28;20147;-79
2022/11/12 09:50:36;;;;;;;19.58;11.60;;;7.10;99.90;;;;;;5115980;28;20050;-78
2022/11/12 09:53:11;;;;;;;18.00;12.73;;;7.00;99.90;;;;;;5115703;28;20127;-79
2022/11/12 09:55:42;;;;;;;23.23;12.82;;;7.10;99.90;;;;;;5115886;28;20082;-79
2022/11/12 09:58:16;;;;;;;21.38;12.63;;;7.20;99.90;;;;;;5115802;28;20040;-78
2022/11/12 10:00:54;;;;;;;21.27;11.90;;;7.30;99.90;;;;;;5114565;28;20039;-79
2022/11/12 10:03:42;;;;;;;17.17;12.43;;;6.90;99.90;;;;;;5115691;28;20039;-79
2022/11/12 10:06:13;;;;;;;21.45;13.20;;;7.50;99.90;;;;;;5115741;28;20043;-79
2022/11/12 10:08:49;;;;;;;21.67;13.13;;;7.60;99.90;;;;;;5115874;28;20391;-79
2022/11/12 10:14:33;;;;;;;19.70;12.15;;;7.80;99.90;;;;;;5115598;27;20047;-79
2022/11/12 10:17:10;;;;;;;16.42;12.07;;;8.00;99.90;;;;;;5115397;28;20039;-79
2022/11/12 10:20:12;;;;;;;17.17;11.63;;;7.90;99.90;;;;;;5115438;28;20064;-79
2022/11/12 10:23:17;;;;;;;16.70;11.00;;;8.00;99.90;;;;;;5115682;28;20043;-79
2022/11/12 10:25:47;;;;;;;18.58;11.20;;;8.10;99.90;;;;;;5115265;27;20510;-79
2022/11/12 10:28:42;;;;;;;16.85;11.10;;;8.10;99.90;;;;;;5114212;28;20047;-79
2022/11/12 10:31:17;;;;;;;17.27;10.60;;;8.20;99.90;;;;;;5111713;28;20455;-79
2022/11/12 10:33:42;;;;;;;20.05;11.35;;;8.30;99.90;;;;;;5115468;28;20040;-79
2022/11/12 10:36:20;;;;;;;20.48;10.93;;;8.40;99.90;;;;;;5115233;28;20528;-79
2022/11/12 10:38:50;;;;;;;14.75;10.80;;;8.50;99.90;;;;;;5115167;28;20503;-80
2022/11/12 10:41:26;;;;;;;15.43;10.23;;;8.60;99.90;;;;;;5115382;28;20126;-79
2022/11/12 10:44:03;;;;;;;19.33;10.88;;;8.20;99.90;;;;;;5114836;28;20043;-79
2022/11/12 10:46:33;;;;;;;15.55;11.18;;;8.80;99.90;;;;;;5113718;28;20036;-79
2022/11/12 10:49:02;;;;;;;16.23;11.02;;;8.90;99.90;;;;;;5113646;28;20043;-80
2022/11/12 10:51:33;;;;;;;14.98;10.63;;;9.00;99.90;;;;;;5114803;28;20043;-80
2022/11/12 10:54:17;;;;;;;18.42;10.38;;;9.10;99.90;;;;;;5114636;28;20383;-79
2022/11/12 10:56:43;;;;;;;16.77;10.68;;;9.30;99.90;;;;;;5115082;28;20381;-79
2022/11/12 10:59:25;;;;;;;15.57;10.40;;;9.40;99.90;;;;;;5114571;28;20092;-79
2022/11/12 11:01:56;;;;;;;17.92;10.88;;;9.60;99.90;;;;;;5114576;28;20126;-78
2022/11/12 11:04:28;;;;;;;15.77;10.15;;;9.60;99.90;;;;;;5113724;28;20032;-78
2022/11/12 11:07:01;;;;;;;19.30;10.57;;;9.90;99.90;;;;;;5114598;28;20456;-78
2022/11/12 11:09:27;;;;;;;12.65;9.27;;;9.90;99.90;;;;;;5114585;28;20044;-79
2022/11/12 11:11:53;;;;;;;13.13;9.25;;;10.00;99.90;;;;;;5114393;28;20514;-79
2022/11/12 11:14:22;;;;;;;13.13;9.35;;;10.20;99.90;;;;;;5114383;28;20130;-79
2022/11/12 11:16:53;;;;;;;18.05;9.85;;;10.30;99.90;;;;;;5114216;28;20491;-79
2022/11/12 11:19:19;;;;;;;14.98;9.48;;;10.40;99.90;;;;;;5113672;28;20040;-79
2022/11/12 11:21:47;;;;;;;16.55;9.85;;;10.20;99.90;;;;;;5113968;28;20062;-78
2022/11/12 11:24:19;;;;;;;15.05;8.93;;;10.70;99.90;;;;;;5114233;28;20079;-79
2022/11/12 11:26:57;;;;;;;11.38;8.82;;;10.80;99.90;;;;;;5114259;28;20040;-80
2022/11/12 11:29:52;;;;;;;14.43;8.43;;;10.90;99.90;;;;;;5114167;28;20047;-79
2022/11/12 11:32:18;;;;;;;12.57;8.65;;;11.00;99.90;;;;;;5114143;28;20134;-79
2022/11/12 11:35:00;;;;;;;14.77;9.18;;;11.10;99.90;;;;;;5114202;28;20082;-79
2022/11/12 11:37:45;;;;;;;17.73;9.85;;;11.20;99.90;;;;;;5113957;28;20478;-79
2022/11/12 11:40:30;;;;;;;14.57;10.43;;;11.40;99.90;;;;;;5113421;28;20051;-79
2022/11/12 11:43:17;;;;;;;12.45;9.27;;;11.50;99.90;;;;;;5114322;28;20089;-79
2022/11/12 11:45:54;;;;;;;12.60;8.68;;;11.30;99.90;;;;;;5113899;28;20050;-79
2022/11/12 11:48:47;;;;;;;16.00;9.90;;;11.70;99.90;;;;;;5113756;28;20129;-79
2022/11/12 11:51:50;;;;;;;13.32;8.68;;;11.90;99.90;;;;;;5114112;28;20467;-79
2022/11/12 11:54:40;;;;;;;11.98;8.40;;;12.00;99.90;;;;;;5114348;28;20044;-79
2022/11/12 11:57:25;;;;;;;19.25;8.73;;;12.10;99.90;;;;;;5114142;28;20107;-78
2022/11/12 11:59:59;;;;;;;14.25;9.40;;;12.20;99.90;;;;;;5114057;28;20048;-79
2022/11/12 12:03:02;;;;;;;11.32;7.97;;;12.40;99.90;;;;;;5113847;28;20051;-80
2022/11/12 12:05:40;;;;;;;14.15;7.93;;;12.40;99.90;;;;;;5113779;28;20083;-79
2022/11/12 12:08:24;;;;;;;13.10;7.60;;;12.40;99.90;;;;;;5113861;28;20052;-79
2022/11/12 12:11:22;;;;;;;11.85;7.75;;;12.00;99.90;;;;;;5113835;28;20044;-79
2022/11/12 12:14:29;;;;;;;9.95;6.93;;;12.60;99.90;;;;;;5100021;28;20066;-79
2022/11/12 12:17:09;;;;;;;12.07;8.48;;;12.60;99.90;;;;;;5050670;28;20045;-78
2022/11/12 12:19:51;;;;;;;10.90;7.53;;;12.70;99.90;;;;;;5109068;28;20056;-78
2022/11/12 12:22:44;;;;;;;12.10;7.78;;;12.60;99.90;;;;;;5113752;28;20048;-78
2022/11/12 12:25:18;;;;;;;14.05;7.90;;;12.70;99.90;;;;;;5113438;28;20491;-78
2022/11/12 12:28:01;;;;;;;12.63;7.88;;;12.70;99.90;;;;;;5113738;28;20048;-78
2022/11/12 12:30:30;;;;;;;11.30;7.18;;;12.70;99.90;;;;;;5113618;28;20056;-78
2022/11/12 12:33:01;;;;;;;12.05;7.20;;;13.00;99.90;;;;;;5115644;28;20047;-78
2022/11/12 12:35:37;;;;;;;14.02;7.93;;;11.90;99.90;;;;;;5117484;28;20043;-79
2022/11/12 12:38:52;;;;;;;12.05;7.78;;;12.50;99.90;;;;;;5117151;28;20133;-78
2022/11/12 12:41:27;;;;;;;10.98;7.55;;;12.50;99.90;;;;;;5103395;28;20052;-78
2022/11/12 12:44:11;;;;;;;11.32;7.50;;;12.50;99.90;;;;;;5117160;28;20096;-79
2022/11/12 12:46:55;;;;;;;10.88;7.45;;;12.40;99.90;;;;;;5117756;28;20100;-78
2022/11/12 12:49:28;;;;;;;11.82;7.63;;;12.50;99.90;;;;;;5117571;28;20096;-79
2022/11/12 12:51:54;;;;;;;11.00;7.60;;;12.90;99.90;;;;;;5117078;28;20184;-79
2022/11/12 12:54:34;;;;;;;10.88;7.35;;;12.50;99.90;;;;;;5116747;28;20085;-79
2022/11/12 12:57:02;;;;;;;11.90;7.60;;;12.60;99.90;;;;;;5116904;28;20043;-79
2022/11/12 12:59:28;;;;;;;11.45;7.57;;;12.10;99.90;;;;;;5117237;28;20066;-78
2022/11/12 13:01:56;;;;;;;9.75;7.18;;;12.50;99.90;;;;;;5117092;28;20047;-79
2022/11/12 13:05:07;;;;;;;10.48;7.22;;;12.40;99.90;;;;;;5116655;28;20043;-78
2022/11/12 13:07:43;;;;;;;8.60;6.95;;;12.40;99.90;;;;;;5092486;28;20063;-79
2022/11/12 13:10:49;;;;;;;11.20;7.35;;;12.30;99.90;;;;;;5116870;28;20038;-78
2022/11/12 13:13:18;;;;;;;12.20;6.90;;;12.30;99.90;;;;;;5116788;28;20456;-79
2022/11/12 13:15:48;;;;;;;9.32;7.05;;;12.90;99.90;;;;;;5116686;28;20054;-79
2022/11/12 13:18:38;;;;;;;12.38;7.30;;;12.30;99.90;;;;;;5116548;28;20047;-78
2022/11/12 13:21:13;;;;;;;12.80;6.88;;;12.30;99.90;;;;;;5116452;28;20047;-79